sensor_id;sensor_type;location;lat;lon;timestamp;P1;durP1;ratioP1;P2;durP2;ratioP2
71600;SDS011;59446;52.192;4.628;2022-07-23T00:00:54;1.20;;;0.90;;
71600;SDS011;59446;52.192;4.628;2022-07-23T00:03:20;1.57;;;0.90;;
71600;SDS011;59446;52.192;4.628;2022-07-23T00:05:45;2.40;;;0.70;;
71600;SDS011;59446;52.192;4.628;2022-07-23T00:08:10;1.27;;;0.70;;
71600;SDS011;59446;52.192;4.628;2022-07-23T00:10:36;1.25;;;0.73;;
71600;SDS011;59446;52.192;4.628;2022-07-23T00:13:02;0.80;;;0.70;;
71600;SDS011;59446;52.192;4.628;2022-07-23T00:15:27;1.45;;;0.80;;
71600;SDS011;59446;52.192;4.628;2022-07-23T00:17:53;2.63;;;0.90;;
71600;SDS011;59446;52.192;4.628;2022-07-23T00:20:18;1.33;;;0.70;;
71600;SDS011;59446;52.192;4.628;2022-07-23T00:22:47;1.53;;;0.73;;
71600;SDS011;59446;52.192;4.628;2022-07-23T00:25:18;1.00;;;0.70;;
71600;SDS011;59446;52.192;4.628;2022-07-23T00:27:44;1.00;;;0.80;;
71600;SDS011;59446;52.192;4.628;2022-07-23T00:30:10;0.97;;;0.70;;
71600;SDS011;59446;52.192;4.628;2022-07-23T00:32:46;1.30;;;0.70;;
71600;SDS011;59446;52.192;4.628;2022-07-23T00:35:16;1.03;;;0.67;;
71600;SDS011;59446;52.192;4.628;2022-07-23T00:37:45;1.63;;;0.80;;
71600;SDS011;59446;52.192;4.628;2022-07-23T00:40:11;1.20;;;0.80;;
71600;SDS011;59446;52.192;4.628;2022-07-23T00:42:37;1.20;;;0.73;;
71600;SDS011;59446;52.192;4.628;2022-07-23T00:45:03;1.23;;;0.73;;
71600;SDS011;59446;52.192;4.628;2022-07-23T00:47:29;1.17;;;0.80;;
71600;SDS011;59446;52.192;4.628;2022-07-23T00:49:55;1.63;;;0.70;;
71600;SDS011;59446;52.192;4.628;2022-07-23T00:52:20;1.33;;;0.73;;
71600;SDS011;59446;52.192;4.628;2022-07-23T00:54:46;1.20;;;0.80;;
71600;SDS011;59446;52.192;4.628;2022-07-23T00:57:12;1.43;;;0.73;;
71600;SDS011;59446;52.192;4.628;2022-07-23T00:59:41;1.00;;;0.70;;
71600;SDS011;59446;52.192;4.628;2022-07-23T01:02:07;0.80;;;0.67;;
71600;SDS011;59446;52.192;4.628;2022-07-23T01:04:32;1.40;;;0.80;;
71600;SDS011;59446;52.192;4.628;2022-07-23T01:06:58;0.90;;;0.60;;
71600;SDS011;59446;52.192;4.628;2022-07-23T01:09:24;1.45;;;0.80;;
71600;SDS011;59446;52.192;4.628;2022-07-23T01:11:50;0.97;;;0.63;;
71600;SDS011;59446;52.192;4.628;2022-07-23T01:14:17;1.13;;;0.70;;
71600;SDS011;59446;52.192;4.628;2022-07-23T01:16:45;1.00;;;0.70;;
71600;SDS011;59446;52.192;4.628;2022-07-23T01:19:12;1.15;;;0.73;;
71600;SDS011;59446;52.192;4.628;2022-07-23T01:21:39;1.08;;;0.65;;
71600;SDS011;59446;52.192;4.628;2022-07-23T01:24:06;1.25;;;0.70;;
71600;SDS011;59446;52.192;4.628;2022-07-23T01:26:33;1.47;;;0.70;;
71600;SDS011;59446;52.192;4.628;2022-07-23T01:28:58;1.35;;;0.82;;
71600;SDS011;59446;52.192;4.628;2022-07-23T01:31:24;0.97;;;0.67;;
71600;SDS011;59446;52.192;4.628;2022-07-23T01:33:50;0.80;;;0.60;;
71600;SDS011;59446;52.192;4.628;2022-07-23T01:36:15;0.83;;;0.63;;
71600;SDS011;59446;52.192;4.628;2022-07-23T01:38:41;1.23;;;0.70;;
71600;SDS011;59446;52.192;4.628;2022-07-23T01:41:06;1.03;;;0.70;;
71600;SDS011;59446;52.192;4.628;2022-07-23T01:43:31;2.13;;;0.90;;
71600;SDS011;59446;52.192;4.628;2022-07-23T01:45:57;1.15;;;0.70;;
71600;SDS011;59446;52.192;4.628;2022-07-23T01:48:22;1.27;;;0.70;;
71600;SDS011;59446;52.192;4.628;2022-07-23T01:50:47;0.97;;;0.70;;
71600;SDS011;59446;52.192;4.628;2022-07-23T01:53:13;0.90;;;0.70;;
71600;SDS011;59446;52.192;4.628;2022-07-23T01:55:39;2.05;;;0.70;;
71600;SDS011;59446;52.192;4.628;2022-07-23T01:58:05;1.10;;;0.60;;
71600;SDS011;59446;52.192;4.628;2022-07-23T02:00:31;1.20;;;0.70;;
71600;SDS011;59446;52.192;4.628;2022-07-23T02:02:57;1.40;;;0.70;;
71600;SDS011;59446;52.192;4.628;2022-07-23T02:05:24;2.08;;;0.80;;
71600;SDS011;59446;52.192;4.628;2022-07-23T02:07:53;1.27;;;0.73;;
71600;SDS011;59446;52.192;4.628;2022-07-23T02:10:19;0.80;;;0.70;;
71600;SDS011;59446;52.192;4.628;2022-07-23T02:12:45;1.33;;;0.67;;
71600;SDS011;59446;52.192;4.628;2022-07-23T02:15:10;2.47;;;0.87;;
71600;SDS011;59446;52.192;4.628;2022-07-23T02:17:36;1.30;;;0.70;;
71600;SDS011;59446;52.192;4.628;2022-07-23T02:20:02;0.80;;;0.60;;
71600;SDS011;59446;52.192;4.628;2022-07-23T02:22:28;1.02;;;0.70;;
71600;SDS011;59446;52.192;4.628;2022-07-23T02:24:53;0.97;;;0.70;;
71600;SDS011;59446;52.192;4.628;2022-07-23T02:27:18;2.00;;;0.80;;
71600;SDS011;59446;52.192;4.628;2022-07-23T02:29:44;0.93;;;0.70;;
71600;SDS011;59446;52.192;4.628;2022-07-23T02:32:09;0.83;;;0.57;;
71600;SDS011;59446;52.192;4.628;2022-07-23T02:34:35;1.43;;;0.70;;
71600;SDS011;59446;52.192;4.628;2022-07-23T02:37:01;1.13;;;0.80;;
71600;SDS011;59446;52.192;4.628;2022-07-23T02:39:27;1.35;;;0.80;;
71600;SDS011;59446;52.192;4.628;2022-07-23T02:41:52;1.20;;;0.70;;
71600;SDS011;59446;52.192;4.628;2022-07-23T02:44:18;1.10;;;0.70;;
71600;SDS011;59446;52.192;4.628;2022-07-23T02:46:43;1.33;;;0.60;;
71600;SDS011;59446;52.192;4.628;2022-07-23T02:49:08;0.80;;;0.70;;
71600;SDS011;59446;52.192;4.628;2022-07-23T02:51:34;0.97;;;0.70;;
71600;SDS011;59446;52.192;4.628;2022-07-23T02:53:59;1.03;;;0.90;;
71600;SDS011;59446;52.192;4.628;2022-07-23T02:56:25;0.88;;;0.77;;
71600;SDS011;59446;52.192;4.628;2022-07-23T02:58:50;1.17;;;0.60;;
71600;SDS011;59446;52.192;4.628;2022-07-23T03:01:16;1.70;;;0.70;;
71600;SDS011;59446;52.192;4.628;2022-07-23T03:03:41;1.63;;;0.70;;
71600;SDS011;59446;52.192;4.628;2022-07-23T03:06:07;1.25;;;0.77;;
71600;SDS011;59446;52.192;4.628;2022-07-23T03:08:32;0.93;;;0.60;;
71600;SDS011;59446;52.192;4.628;2022-07-23T03:10:58;1.07;;;0.70;;
71600;SDS011;59446;52.192;4.628;2022-07-23T03:13:23;0.80;;;0.70;;
71600;SDS011;59446;52.192;4.628;2022-07-23T03:15:48;2.20;;;0.70;;
71600;SDS011;59446;52.192;4.628;2022-07-23T03:18:14;0.70;;;0.60;;
71600;SDS011;59446;52.192;4.628;2022-07-23T03:20:39;1.10;;;0.60;;
71600;SDS011;59446;52.192;4.628;2022-07-23T03:23:05;1.03;;;0.70;;
71600;SDS011;59446;52.192;4.628;2022-07-23T03:25:30;2.07;;;0.77;;
71600;SDS011;59446;52.192;4.628;2022-07-23T03:27:55;0.90;;;0.70;;
71600;SDS011;59446;52.192;4.628;2022-07-23T03:30:21;1.33;;;0.80;;
71600;SDS011;59446;52.192;4.628;2022-07-23T03:32:46;1.63;;;0.73;;
71600;SDS011;59446;52.192;4.628;2022-07-23T03:35:12;1.63;;;1.00;;
71600;SDS011;59446;52.192;4.628;2022-07-23T03:37:37;1.05;;;0.70;;
71600;SDS011;59446;52.192;4.628;2022-07-23T03:40:03;1.07;;;0.70;;
71600;SDS011;59446;52.192;4.628;2022-07-23T03:42:28;1.90;;;0.65;;
71600;SDS011;59446;52.192;4.628;2022-07-23T03:44:54;1.00;;;0.70;;
71600;SDS011;59446;52.192;4.628;2022-07-23T03:47:19;1.00;;;0.70;;
71600;SDS011;59446;52.192;4.628;2022-07-23T03:49:47;0.93;;;0.63;;
71600;SDS011;59446;52.192;4.628;2022-07-23T03:52:13;0.97;;;0.60;;
71600;SDS011;59446;52.192;4.628;2022-07-23T03:54:38;1.48;;;0.55;;
71600;SDS011;59446;52.192;4.628;2022-07-23T03:57:03;1.27;;;0.63;;
71600;SDS011;59446;52.192;4.628;2022-07-23T03:59:29;1.07;;;0.67;;
71600;SDS011;59446;52.192;4.628;2022-07-23T04:01:54;0.60;;;0.60;;
71600;SDS011;59446;52.192;4.628;2022-07-23T04:04:20;0.90;;;0.70;;
71600;SDS011;59446;52.192;4.628;2022-07-23T04:06:45;1.80;;;0.73;;
71600;SDS011;59446;52.192;4.628;2022-07-23T04:09:11;0.90;;;0.70;;
71600;SDS011;59446;52.192;4.628;2022-07-23T04:11:36;1.48;;;0.75;;
71600;SDS011;59446;52.192;4.628;2022-07-23T04:14:02;0.77;;;0.67;;
71600;SDS011;59446;52.192;4.628;2022-07-23T04:16:27;1.43;;;0.60;;
71600;SDS011;59446;52.192;4.628;2022-07-23T04:18:53;2.13;;;0.88;;
71600;SDS011;59446;52.192;4.628;2022-07-23T04:21:19;1.07;;;0.63;;
71600;SDS011;59446;52.192;4.628;2022-07-23T04:23:44;1.13;;;0.55;;
71600;SDS011;59446;52.192;4.628;2022-07-23T04:26:10;1.23;;;0.70;;
71600;SDS011;59446;52.192;4.628;2022-07-23T04:28:35;0.80;;;0.60;;
71600;SDS011;59446;52.192;4.628;2022-07-23T04:31:01;0.70;;;0.60;;
71600;SDS011;59446;52.192;4.628;2022-07-23T04:33:26;1.03;;;0.73;;
71600;SDS011;59446;52.192;4.628;2022-07-23T04:35:51;0.70;;;0.70;;
71600;SDS011;59446;52.192;4.628;2022-07-23T04:38:17;1.17;;;0.63;;
71600;SDS011;59446;52.192;4.628;2022-07-23T04:40:42;0.60;;;0.60;;
71600;SDS011;59446;52.192;4.628;2022-07-23T04:43:08;0.90;;;0.70;;
71600;SDS011;59446;52.192;4.628;2022-07-23T04:45:33;1.53;;;0.80;;
71600;SDS011;59446;52.192;4.628;2022-07-23T04:47:58;0.80;;;0.60;;
71600;SDS011;59446;52.192;4.628;2022-07-23T04:50:24;1.37;;;0.87;;
71600;SDS011;59446;52.192;4.628;2022-07-23T04:52:49;1.43;;;0.70;;
71600;SDS011;59446;52.192;4.628;2022-07-23T04:55:15;0.70;;;0.60;;
71600;SDS011;59446;52.192;4.628;2022-07-23T04:57:42;0.67;;;0.57;;
71600;SDS011;59446;52.192;4.628;2022-07-23T05:00:07;2.03;;;0.85;;
71600;SDS011;59446;52.192;4.628;2022-07-23T05:02:33;1.93;;;0.90;;
71600;SDS011;59446;52.192;4.628;2022-07-23T05:04:59;1.10;;;0.70;;
71600;SDS011;59446;52.192;4.628;2022-07-23T05:07:24;1.33;;;0.70;;
71600;SDS011;59446;52.192;4.628;2022-07-23T05:09:50;1.10;;;0.77;;
71600;SDS011;59446;52.192;4.628;2022-07-23T05:12:15;1.13;;;0.80;;
71600;SDS011;59446;52.192;4.628;2022-07-23T05:14:41;1.13;;;0.80;;
71600;SDS011;59446;52.192;4.628;2022-07-23T05:17:07;1.10;;;0.80;;
71600;SDS011;59446;52.192;4.628;2022-07-23T05:19:33;0.80;;;0.60;;
71600;SDS011;59446;52.192;4.628;2022-07-23T05:21:59;0.63;;;0.60;;
71600;SDS011;59446;52.192;4.628;2022-07-23T05:24:24;1.17;;;0.80;;
71600;SDS011;59446;52.192;4.628;2022-07-23T05:26:50;0.70;;;0.60;;
71600;SDS011;59446;52.192;4.628;2022-07-23T05:29:15;1.25;;;0.80;;
71600;SDS011;59446;52.192;4.628;2022-07-23T05:31:41;1.17;;;0.70;;
71600;SDS011;59446;52.192;4.628;2022-07-23T05:34:06;0.80;;;0.70;;
71600;SDS011;59446;52.192;4.628;2022-07-23T05:36:31;1.20;;;0.77;;
71600;SDS011;59446;52.192;4.628;2022-07-23T05:38:57;0.90;;;0.70;;
71600;SDS011;59446;52.192;4.628;2022-07-23T05:41:23;1.25;;;0.90;;
71600;SDS011;59446;52.192;4.628;2022-07-23T05:43:48;0.90;;;0.60;;
71600;SDS011;59446;52.192;4.628;2022-07-23T05:46:14;1.60;;;0.80;;
71600;SDS011;59446;52.192;4.628;2022-07-23T05:48:39;0.80;;;0.63;;
71600;SDS011;59446;52.192;4.628;2022-07-23T05:51:05;0.93;;;0.70;;
71600;SDS011;59446;52.192;4.628;2022-07-23T05:53:32;0.98;;;0.82;;
71600;SDS011;59446;52.192;4.628;2022-07-23T05:55:58;1.60;;;0.70;;
71600;SDS011;59446;52.192;4.628;2022-07-23T05:58:23;1.40;;;0.70;;
71600;SDS011;59446;52.192;4.628;2022-07-23T06:00:49;0.77;;;0.60;;
71600;SDS011;59446;52.192;4.628;2022-07-23T06:03:14;1.27;;;0.80;;
71600;SDS011;59446;52.192;4.628;2022-07-23T06:05:40;1.00;;;0.80;;
71600;SDS011;59446;52.192;4.628;2022-07-23T06:08:05;1.47;;;0.80;;
71600;SDS011;59446;52.192;4.628;2022-07-23T06:10:31;1.37;;;0.77;;
71600;SDS011;59446;52.192;4.628;2022-07-23T06:12:56;1.47;;;0.90;;
71600;SDS011;59446;52.192;4.628;2022-07-23T06:15:22;0.90;;;0.70;;
71600;SDS011;59446;52.192;4.628;2022-07-23T06:17:47;0.60;;;0.53;;
71600;SDS011;59446;52.192;4.628;2022-07-23T06:20:13;1.47;;;0.80;;
71600;SDS011;59446;52.192;4.628;2022-07-23T06:22:38;1.23;;;0.70;;
71600;SDS011;59446;52.192;4.628;2022-07-23T06:25:04;1.00;;;0.73;;
71600;SDS011;59446;52.192;4.628;2022-07-23T06:27:30;0.85;;;0.70;;
71600;SDS011;59446;52.192;4.628;2022-07-23T06:29:56;1.20;;;0.70;;
71600;SDS011;59446;52.192;4.628;2022-07-23T06:32:21;0.87;;;0.70;;
71600;SDS011;59446;52.192;4.628;2022-07-23T06:34:46;1.20;;;0.80;;
71600;SDS011;59446;52.192;4.628;2022-07-23T06:37:12;1.00;;;0.73;;
71600;SDS011;59446;52.192;4.628;2022-07-23T06:39:37;1.47;;;1.00;;
71600;SDS011;59446;52.192;4.628;2022-07-23T06:42:03;0.83;;;0.70;;
71600;SDS011;59446;52.192;4.628;2022-07-23T06:44:28;1.27;;;0.80;;
71600;SDS011;59446;52.192;4.628;2022-07-23T06:46:54;1.00;;;0.85;;
71600;SDS011;59446;52.192;4.628;2022-07-23T06:49:19;1.33;;;0.83;;
71600;SDS011;59446;52.192;4.628;2022-07-23T06:51:44;1.00;;;0.70;;
71600;SDS011;59446;52.192;4.628;2022-07-23T06:54:10;0.87;;;0.70;;
71600;SDS011;59446;52.192;4.628;2022-07-23T06:56:35;1.33;;;0.77;;
71600;SDS011;59446;52.192;4.628;2022-07-23T06:59:01;1.30;;;0.77;;
71600;SDS011;59446;52.192;4.628;2022-07-23T07:01:26;4.20;;;0.93;;
71600;SDS011;59446;52.192;4.628;2022-07-23T07:03:52;1.83;;;0.80;;
71600;SDS011;59446;52.192;4.628;2022-07-23T07:06:17;1.00;;;0.73;;
71600;SDS011;59446;52.192;4.628;2022-07-23T07:08:43;1.40;;;0.87;;
71600;SDS011;59446;52.192;4.628;2022-07-23T07:11:09;1.08;;;0.77;;
71600;SDS011;59446;52.192;4.628;2022-07-23T07:13:34;2.40;;;0.93;;
71600;SDS011;59446;52.192;4.628;2022-07-23T07:16:00;2.33;;;0.70;;
71600;SDS011;59446;52.192;4.628;2022-07-23T07:18:25;3.90;;;1.10;;
71600;SDS011;59446;52.192;4.628;2022-07-23T07:20:51;2.00;;;1.07;;
71600;SDS011;59446;52.192;4.628;2022-07-23T07:23:16;1.17;;;0.90;;
71600;SDS011;59446;52.192;4.628;2022-07-23T07:25:42;2.60;;;1.25;;
71600;SDS011;59446;52.192;4.628;2022-07-23T07:28:07;1.67;;;0.90;;
71600;SDS011;59446;52.192;4.628;2022-07-23T07:30:32;1.80;;;1.13;;
71600;SDS011;59446;52.192;4.628;2022-07-23T07:32:58;1.73;;;1.00;;
71600;SDS011;59446;52.192;4.628;2022-07-23T07:35:23;1.93;;;1.00;;
71600;SDS011;59446;52.192;4.628;2022-07-23T07:37:50;1.43;;;0.90;;
71600;SDS011;59446;52.192;4.628;2022-07-23T07:40:15;1.98;;;1.15;;
71600;SDS011;59446;52.192;4.628;2022-07-23T07:42:45;3.90;;;1.07;;
71600;SDS011;59446;52.192;4.628;2022-07-23T07:45:11;3.05;;;1.05;;
71600;SDS011;59446;52.192;4.628;2022-07-23T07:47:36;1.10;;;0.90;;
71600;SDS011;59446;52.192;4.628;2022-07-23T07:50:02;2.63;;;1.00;;
71600;SDS011;59446;52.192;4.628;2022-07-23T07:52:27;3.37;;;1.10;;
71600;SDS011;59446;52.192;4.628;2022-07-23T07:54:53;1.77;;;1.00;;
71600;SDS011;59446;52.192;4.628;2022-07-23T07:57:18;4.93;;;1.27;;
71600;SDS011;59446;52.192;4.628;2022-07-23T07:59:43;2.53;;;0.80;;
71600;SDS011;59446;52.192;4.628;2022-07-23T08:02:09;2.20;;;1.20;;
71600;SDS011;59446;52.192;4.628;2022-07-23T08:04:34;1.57;;;1.00;;
71600;SDS011;59446;52.192;4.628;2022-07-23T08:07:00;6.93;;;1.10;;
71600;SDS011;59446;52.192;4.628;2022-07-23T08:09:25;4.37;;;0.77;;
71600;SDS011;59446;52.192;4.628;2022-07-23T08:11:50;5.20;;;0.97;;
71600;SDS011;59446;52.192;4.628;2022-07-23T08:14:16;3.03;;;1.10;;
71600;SDS011;59446;52.192;4.628;2022-07-23T08:16:42;3.40;;;0.80;;
71600;SDS011;59446;52.192;4.628;2022-07-23T08:19:08;1.97;;;0.93;;
71600;SDS011;59446;52.192;4.628;2022-07-23T08:21:33;2.70;;;1.00;;
71600;SDS011;59446;52.192;4.628;2022-07-23T08:23:59;1.73;;;0.90;;
71600;SDS011;59446;52.192;4.628;2022-07-23T08:26:24;1.90;;;0.90;;
71600;SDS011;59446;52.192;4.628;2022-07-23T08:28:49;1.43;;;0.93;;
71600;SDS011;59446;52.192;4.628;2022-07-23T08:31:15;3.83;;;1.10;;
71600;SDS011;59446;52.192;4.628;2022-07-23T08:33:42;3.22;;;1.10;;
71600;SDS011;59446;52.192;4.628;2022-07-23T08:36:08;3.07;;;1.10;;
71600;SDS011;59446;52.192;4.628;2022-07-23T08:38:33;3.00;;;0.80;;
71600;SDS011;59446;52.192;4.628;2022-07-23T08:41:00;2.78;;;0.95;;
71600;SDS011;59446;52.192;4.628;2022-07-23T08:43:27;5.43;;;1.10;;
71600;SDS011;59446;52.192;4.628;2022-07-23T08:45:56;3.80;;;1.17;;
71600;SDS011;59446;52.192;4.628;2022-07-23T08:48:24;4.38;;;1.20;;
71600;SDS011;59446;52.192;4.628;2022-07-23T08:50:52;3.20;;;1.10;;
71600;SDS011;59446;52.192;4.628;2022-07-23T08:53:19;3.72;;;1.00;;
71600;SDS011;59446;52.192;4.628;2022-07-23T08:55:46;2.95;;;1.17;;
71600;SDS011;59446;52.192;4.628;2022-07-23T08:58:13;4.15;;;0.95;;
71600;SDS011;59446;52.192;4.628;2022-07-23T09:00:39;2.57;;;0.90;;
71600;SDS011;59446;52.192;4.628;2022-07-23T09:03:05;3.30;;;0.95;;
71600;SDS011;59446;52.192;4.628;2022-07-23T09:05:31;1.67;;;0.90;;
71600;SDS011;59446;52.192;4.628;2022-07-23T09:10:55;2.70;;;0.97;;
71600;SDS011;59446;52.192;4.628;2022-07-23T09:16:01;6.10;;;1.08;;
71600;SDS011;59446;52.192;4.628;2022-07-23T09:18:34;4.23;;;1.27;;
71600;SDS011;59446;52.192;4.628;2022-07-23T09:21:22;3.50;;;0.98;;
71600;SDS011;59446;52.192;4.628;2022-07-23T09:23:53;1.95;;;0.80;;
71600;SDS011;59446;52.192;4.628;2022-07-23T09:26:36;1.65;;;0.88;;
71600;SDS011;59446;52.192;4.628;2022-07-23T09:34:10;3.13;;;0.90;;
71600;SDS011;59446;52.192;4.628;2022-07-23T09:36:40;1.80;;;0.90;;
71600;SDS011;59446;52.192;4.628;2022-07-23T09:39:06;2.33;;;0.90;;
71600;SDS011;59446;52.192;4.628;2022-07-23T09:41:42;2.00;;;0.90;;
71600;SDS011;59446;52.192;4.628;2022-07-23T09:44:10;2.90;;;0.90;;
71600;SDS011;59446;52.192;4.628;2022-07-23T09:46:39;1.38;;;0.80;;
71600;SDS011;59446;52.192;4.628;2022-07-23T09:49:16;1.95;;;0.90;;
71600;SDS011;59446;52.192;4.628;2022-07-23T09:51:54;2.70;;;1.10;;
71600;SDS011;59446;52.192;4.628;2022-07-23T09:54:23;2.38;;;0.80;;
71600;SDS011;59446;52.192;4.628;2022-07-23T09:57:15;2.13;;;0.98;;
71600;SDS011;59446;52.192;4.628;2022-07-23T09:59:41;2.65;;;1.00;;
71600;SDS011;59446;52.192;4.628;2022-07-23T10:02:08;3.37;;;1.10;;
71600;SDS011;59446;52.192;4.628;2022-07-23T10:04:36;1.67;;;0.88;;
71600;SDS011;59446;52.192;4.628;2022-07-23T10:07:03;2.07;;;1.30;;
71600;SDS011;59446;52.192;4.628;2022-07-23T10:09:31;2.17;;;1.10;;
71600;SDS011;59446;52.192;4.628;2022-07-23T10:11:59;1.73;;;1.08;;
71600;SDS011;59446;52.192;4.628;2022-07-23T10:14:41;4.70;;;1.00;;
71600;SDS011;59446;52.192;4.628;2022-07-23T10:17:07;3.10;;;1.00;;
71600;SDS011;59446;52.192;4.628;2022-07-23T10:19:33;3.95;;;1.13;;
71600;SDS011;59446;52.192;4.628;2022-07-23T10:22:03;1.73;;;0.93;;
71600;SDS011;59446;52.192;4.628;2022-07-23T10:30:13;2.53;;;1.00;;
71600;SDS011;59446;52.192;4.628;2022-07-23T10:35:39;2.92;;;0.90;;
71600;SDS011;59446;52.192;4.628;2022-07-23T10:38:30;1.48;;;1.02;;
71600;SDS011;59446;52.192;4.628;2022-07-23T10:41:29;3.77;;;1.10;;
71600;SDS011;59446;52.192;4.628;2022-07-23T10:44:07;2.05;;;1.08;;
71600;SDS011;59446;52.192;4.628;2022-07-23T10:46:59;3.80;;;0.88;;
71600;SDS011;59446;52.192;4.628;2022-07-23T10:49:32;1.93;;;0.90;;
71600;SDS011;59446;52.192;4.628;2022-07-23T10:57:14;1.40;;;1.00;;
71600;SDS011;59446;52.192;4.628;2022-07-23T11:02:37;1.83;;;1.02;;
71600;SDS011;59446;52.192;4.628;2022-07-23T11:05:05;3.17;;;1.13;;
71600;SDS011;59446;52.192;4.628;2022-07-23T11:07:33;2.77;;;0.83;;
71600;SDS011;59446;52.192;4.628;2022-07-23T11:09:59;2.67;;;1.20;;
71600;SDS011;59446;52.192;4.628;2022-07-23T11:12:31;2.63;;;1.00;;
71600;SDS011;59446;52.192;4.628;2022-07-23T11:17:33;3.40;;;1.35;;
71600;SDS011;59446;52.192;4.628;2022-07-23T11:22:40;1.23;;;0.88;;
71600;SDS011;59446;52.192;4.628;2022-07-23T11:25:11;2.60;;;1.10;;
71600;SDS011;59446;52.192;4.628;2022-07-23T11:30:06;3.03;;;1.33;;
71600;SDS011;59446;52.192;4.628;2022-07-23T11:32:33;2.22;;;1.00;;
71600;SDS011;59446;52.192;4.628;2022-07-23T11:35:03;1.85;;;1.00;;
71600;SDS011;59446;52.192;4.628;2022-07-23T11:37:45;2.83;;;1.10;;
71600;SDS011;59446;52.192;4.628;2022-07-23T11:40:12;1.50;;;0.90;;
71600;SDS011;59446;52.192;4.628;2022-07-23T11:42:40;1.98;;;1.10;;
71600;SDS011;59446;52.192;4.628;2022-07-23T11:45:23;2.20;;;1.10;;
71600;SDS011;59446;52.192;4.628;2022-07-23T11:47:50;1.90;;;1.30;;
71600;SDS011;59446;52.192;4.628;2022-07-23T11:50:16;2.27;;;1.10;;
71600;SDS011;59446;52.192;4.628;2022-07-23T11:52:41;2.25;;;1.00;;
71600;SDS011;59446;52.192;4.628;2022-07-23T11:55:08;2.73;;;1.40;;
71600;SDS011;59446;52.192;4.628;2022-07-23T11:57:36;2.47;;;1.35;;
71600;SDS011;59446;52.192;4.628;2022-07-23T12:00:05;3.38;;;1.30;;
71600;SDS011;59446;52.192;4.628;2022-07-23T12:02:41;3.07;;;1.30;;
71600;SDS011;59446;52.192;4.628;2022-07-23T12:07:47;2.45;;;1.20;;
71600;SDS011;59446;52.192;4.628;2022-07-23T12:10:18;1.90;;;1.00;;
71600;SDS011;59446;52.192;4.628;2022-07-23T12:15:16;1.80;;;1.08;;
71600;SDS011;59446;52.192;4.628;2022-07-23T12:17:44;3.17;;;1.43;;
71600;SDS011;59446;52.192;4.628;2022-07-23T12:20:13;3.83;;;1.52;;
71600;SDS011;59446;52.192;4.628;2022-07-23T12:22:41;1.92;;;1.10;;
71600;SDS011;59446;52.192;4.628;2022-07-23T12:25:12;2.63;;;1.40;;
71600;SDS011;59446;52.192;4.628;2022-07-23T12:27:40;3.13;;;1.30;;
71600;SDS011;59446;52.192;4.628;2022-07-23T12:30:22;2.10;;;1.02;;
71600;SDS011;59446;52.192;4.628;2022-07-23T12:32:51;3.50;;;1.50;;
71600;SDS011;59446;52.192;4.628;2022-07-23T12:35:18;2.40;;;1.30;;
71600;SDS011;59446;52.192;4.628;2022-07-23T12:37:45;2.40;;;1.20;;
71600;SDS011;59446;52.192;4.628;2022-07-23T12:43:03;2.87;;;1.30;;
71600;SDS011;59446;52.192;4.628;2022-07-23T12:48:30;2.65;;;1.15;;
71600;SDS011;59446;52.192;4.628;2022-07-23T12:51:02;1.48;;;1.05;;
71600;SDS011;59446;52.192;4.628;2022-07-23T12:53:31;3.30;;;1.30;;
71600;SDS011;59446;52.192;4.628;2022-07-23T12:56:06;6.50;;;1.98;;
71600;SDS011;59446;52.192;4.628;2022-07-23T12:58:44;8.48;;;1.98;;
71600;SDS011;59446;52.192;4.628;2022-07-23T13:04:04;3.83;;;1.45;;
71600;SDS011;59446;52.192;4.628;2022-07-23T13:09:11;3.13;;;1.10;;
71600;SDS011;59446;52.192;4.628;2022-07-23T13:11:39;2.30;;;1.10;;
71600;SDS011;59446;52.192;4.628;2022-07-23T13:14:05;2.10;;;1.20;;
71600;SDS011;59446;52.192;4.628;2022-07-23T13:16:31;3.10;;;1.23;;
71600;SDS011;59446;52.192;4.628;2022-07-23T13:18:58;5.63;;;1.42;;
71600;SDS011;59446;52.192;4.628;2022-07-23T13:21:26;3.70;;;1.40;;
71600;SDS011;59446;52.192;4.628;2022-07-23T13:23:55;3.57;;;1.50;;
71600;SDS011;59446;52.192;4.628;2022-07-23T13:26:22;5.57;;;1.45;;
71600;SDS011;59446;52.192;4.628;2022-07-23T13:28:47;2.75;;;1.38;;
71600;SDS011;59446;52.192;4.628;2022-07-23T13:31:13;2.40;;;1.20;;
71600;SDS011;59446;52.192;4.628;2022-07-23T13:33:39;2.43;;;1.30;;
71600;SDS011;59446;52.192;4.628;2022-07-23T13:36:04;3.40;;;1.55;;
71600;SDS011;59446;52.192;4.628;2022-07-23T13:38:31;3.40;;;1.47;;
71600;SDS011;59446;52.192;4.628;2022-07-23T13:41:00;3.50;;;1.48;;
71600;SDS011;59446;52.192;4.628;2022-07-23T13:43:28;3.40;;;1.40;;
71600;SDS011;59446;52.192;4.628;2022-07-23T13:45:54;4.22;;;1.70;;
71600;SDS011;59446;52.192;4.628;2022-07-23T13:48:20;2.90;;;1.30;;
71600;SDS011;59446;52.192;4.628;2022-07-23T13:50:47;2.53;;;1.20;;
71600;SDS011;59446;52.192;4.628;2022-07-23T13:53:15;3.17;;;1.38;;
71600;SDS011;59446;52.192;4.628;2022-07-23T13:55:45;2.83;;;1.20;;
71600;SDS011;59446;52.192;4.628;2022-07-23T13:58:11;2.58;;;1.27;;
71600;SDS011;59446;52.192;4.628;2022-07-23T14:00:39;2.08;;;1.20;;
71600;SDS011;59446;52.192;4.628;2022-07-23T14:03:06;3.27;;;1.70;;
71600;SDS011;59446;52.192;4.628;2022-07-23T14:05:32;3.30;;;1.38;;
71600;SDS011;59446;52.192;4.628;2022-07-23T14:07:58;3.47;;;1.20;;
71600;SDS011;59446;52.192;4.628;2022-07-23T14:10:24;2.88;;;1.38;;
71600;SDS011;59446;52.192;4.628;2022-07-23T14:12:50;2.70;;;1.30;;
71600;SDS011;59446;52.192;4.628;2022-07-23T14:15:18;2.15;;;1.45;;
71600;SDS011;59446;52.192;4.628;2022-07-23T14:17:44;2.30;;;1.13;;
71600;SDS011;59446;52.192;4.628;2022-07-23T14:20:11;5.13;;;1.13;;
71600;SDS011;59446;52.192;4.628;2022-07-23T14:22:38;4.28;;;1.50;;
71600;SDS011;59446;52.192;4.628;2022-07-23T14:25:04;3.05;;;1.30;;
71600;SDS011;59446;52.192;4.628;2022-07-23T14:27:31;2.60;;;1.30;;
71600;SDS011;59446;52.192;4.628;2022-07-23T14:29:56;2.15;;;1.30;;
71600;SDS011;59446;52.192;4.628;2022-07-23T14:32:23;4.47;;;1.40;;
71600;SDS011;59446;52.192;4.628;2022-07-23T14:34:49;2.67;;;1.10;;
71600;SDS011;59446;52.192;4.628;2022-07-23T14:37:15;2.20;;;1.00;;
71600;SDS011;59446;52.192;4.628;2022-07-23T14:39:41;2.07;;;1.30;;
71600;SDS011;59446;52.192;4.628;2022-07-23T14:42:08;3.35;;;1.35;;
71600;SDS011;59446;52.192;4.628;2022-07-23T14:44:34;2.57;;;1.13;;
71600;SDS011;59446;52.192;4.628;2022-07-23T14:47:01;2.30;;;1.20;;
71600;SDS011;59446;52.192;4.628;2022-07-23T14:49:29;2.28;;;1.20;;
71600;SDS011;59446;52.192;4.628;2022-07-23T14:51:55;4.20;;;1.33;;
71600;SDS011;59446;52.192;4.628;2022-07-23T14:54:21;2.17;;;1.20;;
71600;SDS011;59446;52.192;4.628;2022-07-23T14:56:47;2.38;;;1.25;;
71600;SDS011;59446;52.192;4.628;2022-07-23T14:59:12;3.33;;;1.30;;
71600;SDS011;59446;52.192;4.628;2022-07-23T15:01:38;3.17;;;1.20;;
71600;SDS011;59446;52.192;4.628;2022-07-23T15:04:04;3.23;;;1.30;;
71600;SDS011;59446;52.192;4.628;2022-07-23T15:06:30;1.90;;;1.20;;
71600;SDS011;59446;52.192;4.628;2022-07-23T15:08:56;2.10;;;1.33;;
71600;SDS011;59446;52.192;4.628;2022-07-23T15:11:21;2.63;;;1.13;;
71600;SDS011;59446;52.192;4.628;2022-07-23T15:13:47;1.67;;;1.10;;
71600;SDS011;59446;52.192;4.628;2022-07-23T15:16:12;1.70;;;1.10;;
71600;SDS011;59446;52.192;4.628;2022-07-23T15:18:38;2.30;;;1.20;;
71600;SDS011;59446;52.192;4.628;2022-07-23T15:21:04;2.03;;;1.10;;
71600;SDS011;59446;52.192;4.628;2022-07-23T15:23:30;2.30;;;1.23;;
71600;SDS011;59446;52.192;4.628;2022-07-23T15:25:55;2.57;;;1.13;;
71600;SDS011;59446;52.192;4.628;2022-07-23T15:28:21;4.03;;;1.60;;
71600;SDS011;59446;52.192;4.628;2022-07-23T15:30:48;2.40;;;1.30;;
71600;SDS011;59446;52.192;4.628;2022-07-23T15:33:14;1.95;;;1.20;;
71600;SDS011;59446;52.192;4.628;2022-07-23T15:35:39;2.13;;;1.20;;
71600;SDS011;59446;52.192;4.628;2022-07-23T15:38:05;1.37;;;0.90;;